sensor_id;sensor_type;location;lat;lon;timestamp;temperature;humidity
71627;DHT22;59475;52.464;13.590;2022-07-18T00:00:07;15.18;72.80
71627;DHT22;59475;52.464;13.590;2022-07-18T00:02:33;15.11;73.35
71627;DHT22;59475;52.464;13.590;2022-07-18T00:04:58;14.98;73.46
71627;DHT22;59475;52.464;13.590;2022-07-18T00:07:23;15.01;73.18
71627;DHT22;59475;52.464;13.590;2022-07-18T00:09:49;14.98;73.66
71627;DHT22;59475;52.464;13.590;2022-07-18T00:12:14;15.01;73.59
71627;DHT22;59475;52.464;13.590;2022-07-18T00:14:40;15.11;73.86
71627;DHT22;59475;52.464;13.590;2022-07-18T00:17:06;15.12;73.78
71627;DHT22;59475;52.464;13.590;2022-07-18T00:19:32;15.14;73.63
71627;DHT22;59475;52.464;13.590;2022-07-18T00:21:57;15.15;73.64
71627;DHT22;59475;52.464;13.590;2022-07-18T00:24:22;15.17;73.67
71627;DHT22;59475;52.464;13.590;2022-07-18T00:26:48;15.17;73.50
71627;DHT22;59475;52.464;13.590;2022-07-18T00:29:14;15.21;73.55
71627;DHT22;59475;52.464;13.590;2022-07-18T00:31:39;15.24;73.42
71627;DHT22;59475;52.464;13.590;2022-07-18T00:34:05;15.28;73.36
71627;DHT22;59475;52.464;13.590;2022-07-18T00:36:31;15.34;73.43
71627;DHT22;59475;52.464;13.590;2022-07-18T00:38:57;15.34;73.08
71627;DHT22;59475;52.464;13.590;2022-07-18T00:41:22;15.35;73.09
71627;DHT22;59475;52.464;13.590;2022-07-18T00:43:48;15.31;73.28
71627;DHT22;59475;52.464;13.590;2022-07-18T00:46:13;15.32;73.05
71627;DHT22;59475;52.464;13.590;2022-07-18T00:48:40;15.36;73.12
71627;DHT22;59475;52.464;13.590;2022-07-18T00:51:06;15.36;73.51
71627;DHT22;59475;52.464;13.590;2022-07-18T00:53:32;15.38;73.27
71627;DHT22;59475;52.464;13.590;2022-07-18T00:55:57;15.39;73.51
71627;DHT22;59475;52.464;13.590;2022-07-18T00:58:24;15.38;73.39
71627;DHT22;59475;52.464;13.590;2022-07-18T01:00:49;15.42;73.46
71627;DHT22;59475;52.464;13.590;2022-07-18T01:03:33;15.42;73.58
71627;DHT22;59475;52.464;13.590;2022-07-18T01:05:59;15.41;73.39
71627;DHT22;59475;52.464;13.590;2022-07-18T01:08:24;15.41;73.36
71627;DHT22;59475;52.464;13.590;2022-07-18T01:10:50;15.34;73.44
71627;DHT22;59475;52.464;13.590;2022-07-18T01:13:17;15.31;73.48
71627;DHT22;59475;52.464;13.590;2022-07-18T01:15:42;15.31;74.09
71627;DHT22;59475;52.464;13.590;2022-07-18T01:18:07;15.28;74.06
71627;DHT22;59475;52.464;13.590;2022-07-18T01:20:33;15.30;74.24
71627;DHT22;59475;52.464;13.590;2022-07-18T01:23:01;15.27;74.35
71627;DHT22;59475;52.464;13.590;2022-07-18T01:25:27;15.30;74.57
71627;DHT22;59475;52.464;13.590;2022-07-18T01:27:53;15.28;74.36
71627;DHT22;59475;52.464;13.590;2022-07-18T01:30:18;15.24;74.16
71627;DHT22;59475;52.464;13.590;2022-07-18T01:32:44;15.20;74.40
71627;DHT22;59475;52.464;13.590;2022-07-18T01:35:10;15.15;74.34
71627;DHT22;59475;52.464;13.590;2022-07-18T01:37:35;15.11;74.17
71627;DHT22;59475;52.464;13.590;2022-07-18T01:40:01;15.06;74.45
71627;DHT22;59475;52.464;13.590;2022-07-18T01:42:26;15.06;74.51
71627;DHT22;59475;52.464;13.590;2022-07-18T01:44:52;15.00;74.61
71627;DHT22;59475;52.464;13.590;2022-07-18T01:47:17;15.01;74.51
71627;DHT22;59475;52.464;13.590;2022-07-18T01:49:43;15.01;75.04
71627;DHT22;59475;52.464;13.590;2022-07-18T01:52:09;15.00;75.14
71627;DHT22;59475;52.464;13.590;2022-07-18T01:54:35;14.91;75.09
71627;DHT22;59475;52.464;13.590;2022-07-18T01:57:03;14.84;75.18
71627;DHT22;59475;52.464;13.590;2022-07-18T01:59:29;14.84;75.25
71627;DHT22;59475;52.464;13.590;2022-07-18T02:01:55;14.81;75.39
71627;DHT22;59475;52.464;13.590;2022-07-18T02:04:20;14.79;75.50
71627;DHT22;59475;52.464;13.590;2022-07-18T02:07:05;14.68;75.83
71627;DHT22;59475;52.464;13.590;2022-07-18T02:09:37;14.58;75.79
71627;DHT22;59475;52.464;13.590;2022-07-18T02:12:03;14.46;76.13
71627;DHT22;59475;52.464;13.590;2022-07-18T02:14:28;14.36;76.40
71627;DHT22;59475;52.464;13.590;2022-07-18T02:16:54;14.36;76.46
71627;DHT22;59475;52.464;13.590;2022-07-18T02:19:19;14.29;76.36
71627;DHT22;59475;52.464;13.590;2022-07-18T02:21:44;14.22;76.60
71627;DHT22;59475;52.464;13.590;2022-07-18T02:24:09;14.20;76.75
71627;DHT22;59475;52.464;13.590;2022-07-18T02:26:35;14.15;76.88
71627;DHT22;59475;52.464;13.590;2022-07-18T02:29:00;14.08;77.71
71627;DHT22;59475;52.464;13.590;2022-07-18T02:31:25;14.07;77.52
71627;DHT22;59475;52.464;13.590;2022-07-18T02:33:51;14.04;77.67
71627;DHT22;59475;52.464;13.590;2022-07-18T02:36:16;14.00;77.42
71627;DHT22;59475;52.464;13.590;2022-07-18T02:38:41;13.93;77.38
71627;DHT22;59475;52.464;13.590;2022-07-18T02:41:07;13.85;77.36
71627;DHT22;59475;52.464;13.590;2022-07-18T02:43:32;13.80;77.60
71627;DHT22;59475;52.464;13.590;2022-07-18T02:45:57;13.77;78.24
71627;DHT22;59475;52.464;13.590;2022-07-18T02:48:22;13.67;78.23
71627;DHT22;59475;52.464;13.590;2022-07-18T02:50:48;13.67;78.29
71627;DHT22;59475;52.464;13.590;2022-07-18T02:53:13;13.63;78.73
71627;DHT22;59475;52.464;13.590;2022-07-18T02:55:38;13.52;79.12
71627;DHT22;59475;52.464;13.590;2022-07-18T02:58:04;13.50;78.79
71627;DHT22;59475;52.464;13.590;2022-07-18T03:00:29;13.49;78.78
71627;DHT22;59475;52.464;13.590;2022-07-18T03:02:54;13.42;78.90
71627;DHT22;59475;52.464;13.590;2022-07-18T03:05:20;13.40;79.09
71627;DHT22;59475;52.464;13.590;2022-07-18T03:07:46;13.35;78.83
71627;DHT22;59475;52.464;13.590;2022-07-18T03:10:12;13.32;79.01
71627;DHT22;59475;52.464;13.590;2022-07-18T03:12:40;13.34;79.33
71627;DHT22;59475;52.464;13.590;2022-07-18T03:15:05;13.35;79.26
71627;DHT22;59475;52.464;13.590;2022-07-18T03:17:31;13.30;79.28
71627;DHT22;59475;52.464;13.590;2022-07-18T03:19:56;13.26;79.91
71627;DHT22;59475;52.464;13.590;2022-07-18T03:22:21;13.23;79.81
71627;DHT22;59475;52.464;13.590;2022-07-18T03:24:47;13.25;79.91
71627;DHT22;59475;52.464;13.590;2022-07-18T03:27:12;13.23;79.92
71627;DHT22;59475;52.464;13.590;2022-07-18T03:29:37;13.22;79.79
71627;DHT22;59475;52.464;13.590;2022-07-18T03:32:03;13.21;79.74
71627;DHT22;59475;52.464;13.590;2022-07-18T03:34:28;13.16;80.06
71627;DHT22;59475;52.464;13.590;2022-07-18T03:36:53;13.18;79.99
71627;DHT22;59475;52.464;13.590;2022-07-18T03:39:18;13.18;80.21
71627;DHT22;59475;52.464;13.590;2022-07-18T03:41:44;13.19;79.94
71627;DHT22;59475;52.464;13.590;2022-07-18T03:44:09;13.23;80.01
71627;DHT22;59475;52.464;13.590;2022-07-18T03:46:35;13.22;79.83
71627;DHT22;59475;52.464;13.590;2022-07-18T03:49:00;13.22;79.51
71627;DHT22;59475;52.464;13.590;2022-07-18T03:51:25;13.21;79.57
71627;DHT22;59475;52.464;13.590;2022-07-18T03:53:51;13.15;79.68
71627;DHT22;59475;52.464;13.590;2022-07-18T03:56:16;13.15;79.96
71627;DHT22;59475;52.464;13.590;2022-07-18T03:58:42;13.14;80.23
71627;DHT22;59475;52.464;13.590;2022-07-18T04:01:07;13.12;80.19
71627;DHT22;59475;52.464;13.590;2022-07-18T04:03:32;13.12;80.34
71627;DHT22;59475;52.464;13.590;2022-07-18T04:05:58;13.15;80.42
71627;DHT22;59475;52.464;13.590;2022-07-18T04:08:23;13.18;80.32
71627;DHT22;59475;52.464;13.590;2022-07-18T04:10:49;13.26;80.53
71627;DHT22;59475;52.464;13.590;2022-07-18T04:13:14;13.30;80.43
71627;DHT22;59475;52.464;13.590;2022-07-18T04:15:40;13.34;80.50
71627;DHT22;59475;52.464;13.590;2022-07-18T04:18:07;13.36;80.76
71627;DHT22;59475;52.464;13.590;2022-07-18T04:20:34;13.42;81.05
71627;DHT22;59475;52.464;13.590;2022-07-18T04:23:02;13.46;80.79
71627;DHT22;59475;52.464;13.590;2022-07-18T04:25:29;13.47;81.11
71627;DHT22;59475;52.464;13.590;2022-07-18T04:27:55;13.55;80.39
71627;DHT22;59475;52.464;13.590;2022-07-18T04:30:23;13.57;80.36
71627;DHT22;59475;52.464;13.590;2022-07-18T04:32:49;13.65;80.20
71627;DHT22;59475;52.464;13.590;2022-07-18T04:35:15;13.71;79.77
71627;DHT22;59475;52.464;13.590;2022-07-18T04:37:41;13.83;79.78
71627;DHT22;59475;52.464;13.590;2022-07-18T04:40:08;13.93;79.89
71627;DHT22;59475;52.464;13.590;2022-07-18T04:42:34;14.01;79.91
71627;DHT22;59475;52.464;13.590;2022-07-18T04:44:59;14.11;79.90
71627;DHT22;59475;52.464;13.590;2022-07-18T04:47:26;14.25;79.93
71627;DHT22;59475;52.464;13.590;2022-07-18T04:49:51;14.38;79.51
71627;DHT22;59475;52.464;13.590;2022-07-18T04:52:17;14.49;79.84
71627;DHT22;59475;52.464;13.590;2022-07-18T04:54:42;14.58;79.28
71627;DHT22;59475;52.464;13.590;2022-07-18T04:57:07;14.72;78.47
71627;DHT22;59475;52.464;13.590;2022-07-18T04:59:35;14.83;78.16
71627;DHT22;59475;52.464;13.590;2022-07-18T05:02:01;14.96;78.01
71627;DHT22;59475;52.464;13.590;2022-07-18T05:04:26;15.08;77.65
71627;DHT22;59475;52.464;13.590;2022-07-18T05:06:51;15.24;77.88
71627;DHT22;59475;52.464;13.590;2022-07-18T05:09:17;15.35;77.58
71627;DHT22;59475;52.464;13.590;2022-07-18T05:11:42;15.49;77.68
71627;DHT22;59475;52.464;13.590;2022-07-18T05:14:07;15.65;75.96
71627;DHT22;59475;52.464;13.590;2022-07-18T05:16:33;15.76;76.29
71627;DHT22;59475;52.464;13.590;2022-07-18T05:18:58;15.90;76.38
71627;DHT22;59475;52.464;13.590;2022-07-18T05:21:23;16.03;75.65
71627;DHT22;59475;52.464;13.590;2022-07-18T05:23:48;16.20;74.56
71627;DHT22;59475;52.464;13.590;2022-07-18T05:26:14;16.32;73.77
71627;DHT22;59475;52.464;13.590;2022-07-18T05:28:39;16.49;73.93
71627;DHT22;59475;52.464;13.590;2022-07-18T05:31:04;16.65;73.98
71627;DHT22;59475;52.464;13.590;2022-07-18T05:33:30;16.83;73.13
71627;DHT22;59475;52.464;13.590;2022-07-18T05:35:55;17.06;73.93
71627;DHT22;59475;52.464;13.590;2022-07-18T05:38:21;17.23;70.50
71627;DHT22;59475;52.464;13.590;2022-07-18T05:40:46;17.34;69.64
71627;DHT22;59475;52.464;13.590;2022-07-18T05:43:11;17.55;70.12
71627;DHT22;59475;52.464;13.590;2022-07-18T05:45:37;17.83;68.92
71627;DHT22;59475;52.464;13.590;2022-07-18T05:48:03;18.14;69.07
71627;DHT22;59475;52.464;13.590;2022-07-18T05:50:28;18.36;66.13
71627;DHT22;59475;52.464;13.590;2022-07-18T05:52:53;18.58;66.53
71627;DHT22;59475;52.464;13.590;2022-07-18T05:55:19;18.89;66.14
71627;DHT22;59475;52.464;13.590;2022-07-18T05:57:45;19.17;63.38
71627;DHT22;59475;52.464;13.590;2022-07-18T06:00:11;19.37;59.14
71627;DHT22;59475;52.464;13.590;2022-07-18T06:02:37;19.55;59.71
71627;DHT22;59475;52.464;13.590;2022-07-18T06:05:04;19.61;59.40
71627;DHT22;59475;52.464;13.590;2022-07-18T06:07:30;19.82;57.50
71627;DHT22;59475;52.464;13.590;2022-07-18T06:09:55;20.00;57.06
71627;DHT22;59475;52.464;13.590;2022-07-18T06:12:21;20.27;57.11
71627;DHT22;59475;52.464;13.590;2022-07-18T06:14:46;20.53;56.81
71627;DHT22;59475;52.464;13.590;2022-07-18T06:17:11;20.83;56.83
71627;DHT22;59475;52.464;13.590;2022-07-18T06:19:37;21.09;56.10
71627;DHT22;59475;52.464;13.590;2022-07-18T06:22:02;21.43;56.24
71627;DHT22;59475;52.464;13.590;2022-07-18T06:24:27;21.67;53.88
71627;DHT22;59475;52.464;13.590;2022-07-18T06:26:53;21.80;52.90
71627;DHT22;59475;52.464;13.590;2022-07-18T06:29:18;21.94;52.76
71627;DHT22;59475;52.464;13.590;2022-07-18T06:31:43;22.04;52.90
71627;DHT22;59475;52.464;13.590;2022-07-18T06:34:09;22.25;52.97
71627;DHT22;59475;52.464;13.590;2022-07-18T06:36:34;22.48;52.59
71627;DHT22;59475;52.464;13.590;2022-07-18T06:39:00;22.87;50.41
71627;DHT22;59475;52.464;13.590;2022-07-18T06:41:25;23.18;50.04
71627;DHT22;59475;52.464;13.590;2022-07-18T06:43:51;23.48;49.38
71627;DHT22;59475;52.464;13.590;2022-07-18T06:46:16;23.65;47.23
71627;DHT22;59475;52.464;13.590;2022-07-18T06:48:41;23.32;47.74
71627;DHT22;59475;52.464;13.590;2022-07-18T06:51:07;23.46;47.42
71627;DHT22;59475;52.464;13.590;2022-07-18T06:53:33;23.70;48.15
71627;DHT22;59475;52.464;13.590;2022-07-18T06:55:59;23.90;45.11
71627;DHT22;59475;52.464;13.590;2022-07-18T06:58:25;23.87;45.86
71627;DHT22;59475;52.464;13.590;2022-07-18T07:00:50;24.14;45.61
71627;DHT22;59475;52.464;13.590;2022-07-18T07:03:16;24.62;44.63
71627;DHT22;59475;52.464;13.590;2022-07-18T07:05:42;24.80;43.98
71627;DHT22;59475;52.464;13.590;2022-07-18T07:08:07;25.17;42.74
71627;DHT22;59475;52.464;13.590;2022-07-18T07:10:32;25.58;42.68
71627;DHT22;59475;52.464;13.590;2022-07-18T07:12:58;25.71;41.70
71627;DHT22;59475;52.464;13.590;2022-07-18T07:15:24;26.13;41.31
71627;DHT22;59475;52.464;13.590;2022-07-18T07:17:51;26.24;40.63
71627;DHT22;59475;52.464;13.590;2022-07-18T07:20:17;26.67;40.34
71627;DHT22;59475;52.464;13.590;2022-07-18T07:22:46;26.82;38.65
71627;DHT22;59475;52.464;13.590;2022-07-18T07:25:15;26.72;39.46
71627;DHT22;59475;52.464;13.590;2022-07-18T07:27:42;26.95;39.12
71627;DHT22;59475;52.464;13.590;2022-07-18T07:30:08;27.51;38.47
71627;DHT22;59475;52.464;13.590;2022-07-18T07:32:38;27.74;36.53
71627;DHT22;59475;52.464;13.590;2022-07-18T07:35:05;28.52;36.09
71627;DHT22;59475;52.464;13.590;2022-07-18T07:37:33;28.60;35.12
71627;DHT22;59475;52.464;13.590;2022-07-18T07:39:58;28.61;35.50
71627;DHT22;59475;52.464;13.590;2022-07-18T07:42:24;28.31;35.42
71627;DHT22;59475;52.464;13.590;2022-07-18T07:44:49;28.32;34.89
71627;DHT22;59475;52.464;13.590;2022-07-18T07:47:14;28.12;34.38
71627;DHT22;59475;52.464;13.590;2022-07-18T07:49:40;28.49;34.90
71627;DHT22;59475;52.464;13.590;2022-07-18T07:52:05;28.71;33.86
71627;DHT22;59475;52.464;13.590;2022-07-18T07:54:30;29.07;33.10
71627;DHT22;59475;52.464;13.590;2022-07-18T07:56:55;29.32;32.68
71627;DHT22;59475;52.464;13.590;2022-07-18T07:59:21;28.26;34.04
71627;DHT22;59475;52.464;13.590;2022-07-18T08:01:46;28.47;34.05
71627;DHT22;59475;52.464;13.590;2022-07-18T08:04:12;29.53;33.60
71627;DHT22;59475;52.464;13.590;2022-07-18T08:06:37;29.52;31.91
71627;DHT22;59475;52.464;13.590;2022-07-18T08:09:02;29.96;32.04
71627;DHT22;59475;52.464;13.590;2022-07-18T08:11:28;30.15;31.40
71627;DHT22;59475;52.464;13.590;2022-07-18T08:13:53;29.00;32.61
71627;DHT22;59475;52.464;13.590;2022-07-18T08:16:19;29.07;32.59
71627;DHT22;59475;52.464;13.590;2022-07-18T08:18:44;27.95;33.94
71627;DHT22;59475;52.464;13.590;2022-07-18T08:21:10;28.45;33.74
71627;DHT22;59475;52.464;13.590;2022-07-18T08:23:35;27.85;33.72
71627;DHT22;59475;52.464;13.590;2022-07-18T08:26:01;28.26;34.30
71627;DHT22;59475;52.464;13.590;2022-07-18T08:28:27;28.83;33.36
71627;DHT22;59475;52.464;13.590;2022-07-18T08:30:52;29.72;32.16
71627;DHT22;59475;52.464;13.590;2022-07-18T08:33:17;30.80;30.67
71627;DHT22;59475;52.464;13.590;2022-07-18T08:35:43;30.41;30.00
71627;DHT22;59475;52.464;13.590;2022-07-18T08:38:08;30.36;30.11
71627;DHT22;59475;52.464;13.590;2022-07-18T08:40:33;30.18;30.28
71627;DHT22;59475;52.464;13.590;2022-07-18T08:43:00;30.28;29.56
71627;DHT22;59475;52.464;13.590;2022-07-18T08:45:26;30.62;28.97
71627;DHT22;59475;52.464;13.590;2022-07-18T08:47:52;30.32;29.59
71627;DHT22;59475;52.464;13.590;2022-07-18T08:50:18;29.94;30.66
71627;DHT22;59475;52.464;13.590;2022-07-18T08:52:44;29.74;30.62
71627;DHT22;59475;52.464;13.590;2022-07-18T08:55:10;29.52;31.55
71627;DHT22;59475;52.464;13.590;2022-07-18T08:57:36;29.32;31.29
71627;DHT22;59475;52.464;13.590;2022-07-18T09:00:04;29.00;31.32
71627;DHT22;59475;52.464;13.590;2022-07-18T09:02:30;28.92;31.62
71627;DHT22;59475;52.464;13.590;2022-07-18T09:04:55;29.16;31.85
71627;DHT22;59475;52.464;13.590;2022-07-18T09:07:26;28.73;31.56
71627;DHT22;59475;52.464;13.590;2022-07-18T09:09:55;28.06;32.66
71627;DHT22;59475;52.464;13.590;2022-07-18T09:12:22;28.63;32.85
71627;DHT22;59475;52.464;13.590;2022-07-18T09:14:48;28.57;32.15
71627;DHT22;59475;52.464;13.590;2022-07-18T09:17:25;27.60;33.63
71627;DHT22;59475;52.464;13.590;2022-07-18T09:20:11;27.55;33.45
71627;DHT22;59475;52.464;13.590;2022-07-18T09:22:41;27.23;35.95
71627;DHT22;59475;52.464;13.590;2022-07-18T09:25:21;27.98;33.76
71627;DHT22;59475;52.464;13.590;2022-07-18T09:27:49;28.08;33.50
71627;DHT22;59475;52.464;13.590;2022-07-18T09:30:28;28.16;33.18
71627;DHT22;59475;52.464;13.590;2022-07-18T09:33:05;28.37;34.67
71627;DHT22;59475;52.464;13.590;2022-07-18T09:38:08;28.52;32.24
71627;DHT22;59475;52.464;13.590;2022-07-18T09:40:41;28.88;32.85
71627;DHT22;59475;52.464;13.590;2022-07-18T09:43:09;29.57;31.67
71627;DHT22;59475;52.464;13.590;2022-07-18T09:45:39;30.17;30.90
71627;DHT22;59475;52.464;13.590;2022-07-18T09:48:08;30.05;30.54
71627;DHT22;59475;52.464;13.590;2022-07-18T09:50:36;30.05;30.24
71627;DHT22;59475;52.464;13.590;2022-07-18T09:53:11;30.33;29.76
71627;DHT22;59475;52.464;13.590;2022-07-18T09:55:42;30.62;29.76
71627;DHT22;59475;52.464;13.590;2022-07-18T09:58:08;31.48;28.91
71627;DHT22;59475;52.464;13.590;2022-07-18T10:00:36;30.63;27.92
71627;DHT22;59475;52.464;13.590;2022-07-18T10:03:04;30.12;29.64
71627;DHT22;59475;52.464;13.590;2022-07-18T10:05:34;30.66;29.70
71627;DHT22;59475;52.464;13.590;2022-07-18T10:08:03;31.89;29.16
71627;DHT22;59475;52.464;13.590;2022-07-18T10:10:29;31.75;28.93
71627;DHT22;59475;52.464;13.590;2022-07-18T10:12:57;30.67;29.17
71627;DHT22;59475;52.464;13.590;2022-07-18T10:15:24;30.86;30.57
71627;DHT22;59475;52.464;13.590;2022-07-18T10:17:51;30.41;29.83
71627;DHT22;59475;52.464;13.590;2022-07-18T10:20:16;30.10;30.72
71627;DHT22;59475;52.464;13.590;2022-07-18T10:22:43;29.97;30.40
71627;DHT22;59475;52.464;13.590;2022-07-18T10:25:12;29.88;31.59
71627;DHT22;59475;52.464;13.590;2022-07-18T10:27:49;30.42;31.87
71627;DHT22;59475;52.464;13.590;2022-07-18T10:30:15;31.35;30.51
71627;DHT22;59475;52.464;13.590;2022-07-18T10:32:42;32.05;29.27
71627;DHT22;59475;52.464;13.590;2022-07-18T10:35:09;32.09;27.73
71627;DHT22;59475;52.464;13.590;2022-07-18T10:37:36;32.34;27.46
71627;DHT22;59475;52.464;13.590;2022-07-18T10:40:24;32.48;27.89
71627;DHT22;59475;52.464;13.590;2022-07-18T10:45:54;32.89;26.82
71627;DHT22;59475;52.464;13.590;2022-07-18T10:51:13;30.28;29.72
71627;DHT22;59475;52.464;13.590;2022-07-18T10:56:18;30.32;30.08
71627;DHT22;59475;52.464;13.590;2022-07-18T10:58:44;30.14;30.03
71627;DHT22;59475;52.464;13.590;2022-07-18T11:01:14;30.14;28.93
71627;DHT22;59475;52.464;13.590;2022-07-18T11:03:40;31.20;28.68
71627;DHT22;59475;52.464;13.590;2022-07-18T11:06:06;30.96;28.80
71627;DHT22;59475;52.464;13.590;2022-07-18T11:08:31;31.52;28.04
71627;DHT22;59475;52.464;13.590;2022-07-18T11:15:56;31.79;27.61
71627;DHT22;59475;52.464;13.590;2022-07-18T11:18:22;32.19;27.38
71627;DHT22;59475;52.464;13.590;2022-07-18T11:20:48;32.03;28.12
71627;DHT22;59475;52.464;13.590;2022-07-18T11:23:21;31.58;27.87
71627;DHT22;59475;52.464;13.590;2022-07-18T11:25:52;31.28;27.53
71627;DHT22;59475;52.464;13.590;2022-07-18T11:28:20;30.73;28.48
71627;DHT22;59475;52.464;13.590;2022-07-18T11:30:45;30.22;29.58
71627;DHT22;59475;52.464;13.590;2022-07-18T11:33:23;30.73;28.42
71627;DHT22;59475;52.464;13.590;2022-07-18T11:35:48;31.85;26.48
71627;DHT22;59475;52.464;13.590;2022-07-18T11:38:14;31.75;26.24
71627;DHT22;59475;52.464;13.590;2022-07-18T11:40:52;31.55;26.75
71627;DHT22;59475;52.464;13.590;2022-07-18T11:43:22;32.26;27.47
71627;DHT22;59475;52.464;13.590;2022-07-18T11:45:47;32.43;27.40
71627;DHT22;59475;52.464;13.590;2022-07-18T11:48:20;32.41;26.29
71627;DHT22;59475;52.464;13.590;2022-07-18T11:50:46;32.60;26.42
71627;DHT22;59475;52.464;13.590;2022-07-18T11:53:11;31.48;27.58
71627;DHT22;59475;52.464;13.590;2022-07-18T11:55:38;31.85;27.54
71627;DHT22;59475;52.464;13.590;2022-07-18T11:58:07;31.97;26.21
71627;DHT22;59475;52.464;13.590;2022-07-18T12:00:33;32.00;26.88
71627;DHT22;59475;52.464;13.590;2022-07-18T12:02:58;31.69;26.97
71627;DHT22;59475;52.464;13.590;2022-07-18T12:05:36;32.02;27.51
71627;DHT22;59475;52.464;13.590;2022-07-18T12:08:35;32.16;26.67
71627;DHT22;59475;52.464;13.590;2022-07-18T12:14:04;31.94;28.21
71627;DHT22;59475;52.464;13.590;2022-07-18T12:16:41;32.09;27.92
71627;DHT22;59475;52.464;13.590;2022-07-18T12:19:10;32.35;27.40
71627;DHT22;59475;52.464;13.590;2022-07-18T12:32:25;30.93;27.63
71627;DHT22;59475;52.464;13.590;2022-07-18T12:34:59;30.88;27.85
71627;DHT22;59475;52.464;13.590;2022-07-18T12:37:26;30.79;27.94
71627;DHT22;59475;52.464;13.590;2022-07-18T12:39:59;31.31;26.90
71627;DHT22;59475;52.464;13.590;2022-07-18T12:42:33;31.18;27.27
71627;DHT22;59475;52.464;13.590;2022-07-18T12:44:59;31.35;27.67
71627;DHT22;59475;52.464;13.590;2022-07-18T12:47:25;31.28;27.95
71627;DHT22;59475;52.464;13.590;2022-07-18T12:49:51;31.31;27.84
71627;DHT22;59475;52.464;13.590;2022-07-18T12:52:17;31.32;28.34
71627;DHT22;59475;52.464;13.590;2022-07-18T12:54:43;31.59;26.85
71627;DHT22;59475;52.464;13.590;2022-07-18T12:57:08;31.28;28.25
71627;DHT22;59475;52.464;13.590;2022-07-18T12:59:34;31.23;27.73
71627;DHT22;59475;52.464;13.590;2022-07-18T13:01:59;31.45;27.68
71627;DHT22;59475;52.464;13.590;2022-07-18T13:04:24;31.57;28.20
71627;DHT22;59475;52.464;13.590;2022-07-18T13:06:49;31.28;27.69
71627;DHT22;59475;52.464;13.590;2022-07-18T13:09:15;31.27;27.57
71627;DHT22;59475;52.464;13.590;2022-07-18T13:11:40;30.88;27.57
71627;DHT22;59475;52.464;13.590;2022-07-18T13:14:08;30.51;28.34
71627;DHT22;59475;52.464;13.590;2022-07-18T13:16:33;30.73;28.59
71627;DHT22;59475;52.464;13.590;2022-07-18T13:18:58;30.65;27.38
71627;DHT22;59475;52.464;13.590;2022-07-18T13:21:24;30.86;28.64
71627;DHT22;59475;52.464;13.590;2022-07-18T13:23:49;30.45;28.01
71627;DHT22;59475;52.464;13.590;2022-07-18T13:26:14;30.33;28.38
71627;DHT22;59475;52.464;13.590;2022-07-18T13:28:40;30.11;27.90
71627;DHT22;59475;52.464;13.590;2022-07-18T13:31:05;30.21;28.01
71627;DHT22;59475;52.464;13.590;2022-07-18T13:33:30;29.57;29.07
71627;DHT22;59475;52.464;13.590;2022-07-18T13:35:56;29.56;31.28
71627;DHT22;59475;52.464;13.590;2022-07-18T13:38:21;29.69;29.49
71627;DHT22;59475;52.464;13.590;2022-07-18T13:40:46;30.14;29.70
71627;DHT22;59475;52.464;13.590;2022-07-18T13:43:12;30.56;29.75
71627;DHT22;59475;52.464;13.590;2022-07-18T13:45:37;30.53;28.31
71627;DHT22;59475;52.464;13.590;2022-07-18T13:48:04;30.58;28.45
71627;DHT22;59475;52.464;13.590;2022-07-18T13:50:29;30.75;28.45
71627;DHT22;59475;52.464;13.590;2022-07-18T13:52:56;30.39;28.87
71627;DHT22;59475;52.464;13.590;2022-07-18T13:55:21;30.24;28.86
71627;DHT22;59475;52.464;13.590;2022-07-18T13:57:47;30.36;28.98
71627;DHT22;59475;52.464;13.590;2022-07-18T14:00:13;30.29;29.00
71627;DHT22;59475;52.464;13.590;2022-07-18T14:02:38;30.43;29.14
71627;DHT22;59475;52.464;13.590;2022-07-18T14:05:04;30.66;28.90
71627;DHT22;59475;52.464;13.590;2022-07-18T14:07:29;30.41;30.04
71627;DHT22;59475;52.464;13.590;2022-07-18T14:09:55;30.21;30.44
71627;DHT22;59475;52.464;13.590;2022-07-18T14:12:20;30.14;29.31
71627;DHT22;59475;52.464;13.590;2022-07-18T14:14:45;30.31;28.95
71627;DHT22;59475;52.464;13.590;2022-07-18T14:17:11;30.20;29.18
71627;DHT22;59475;52.464;13.590;2022-07-18T14:19:36;29.83;29.90
71627;DHT22;59475;52.464;13.590;2022-07-18T14:22:03;30.00;30.63
71627;DHT22;59475;52.464;13.590;2022-07-18T14:24:28;29.73;29.88
71627;DHT22;59475;52.464;13.590;2022-07-18T14:26:53;29.84;28.89
71627;DHT22;59475;52.464;13.590;2022-07-18T14:29:19;29.70;29.87
71627;DHT22;59475;52.464;13.590;2022-07-18T14:31:44;29.46;30.50
71627;DHT22;59475;52.464;13.590;2022-07-18T14:34:09;29.39;31.89
71627;DHT22;59475;52.464;13.590;2022-07-18T14:36:35;29.70;30.61
71627;DHT22;59475;52.464;13.590;2022-07-18T14:39:00;30.11;30.62
71627;DHT22;59475;52.464;13.590;2022-07-18T14:41:25;30.35;30.05
71627;DHT22;59475;52.464;13.590;2022-07-18T14:43:51;30.31;29.44
71627;DHT22;59475;52.464;13.590;2022-07-18T14:46:16;29.65;30.11
71627;DHT22;59475;52.464;13.590;2022-07-18T14:48:41;29.55;30.01
71627;DHT22;59475;52.464;13.590;2022-07-18T14:51:07;29.55;30.61
71627;DHT22;59475;52.464;13.590;2022-07-18T14:53:33;29.62;30.12
71627;DHT22;59475;52.464;13.590;2022-07-18T14:55:58;29.84;30.58
71627;DHT22;59475;52.464;13.590;2022-07-18T14:58:23;30.10;30.09
71627;DHT22;59475;52.464;13.590;2022-07-18T15:00:49;30.31;30.40
71627;DHT22;59475;52.464;13.590;2022-07-18T15:03:14;30.45;30.14
71627;DHT22;59475;52.464;13.590;2022-07-18T15:05:39;30.46;30.02
71627;DHT22;59475;52.464;13.590;2022-07-18T15:08:10;30.18;30.50
71627;DHT22;59475;52.464;13.590;2022-07-18T15:10:36;30.27;30.70
71627;DHT22;59475;52.464;13.590;2022-07-18T15:13:01;30.21;30.82
71627;DHT22;59475;52.464;13.590;2022-07-18T15:15:26;29.93;29.71
71627;DHT22;59475;52.464;13.590;2022-07-18T15:17:52;30.01;30.40
71627;DHT22;59475;52.464;13.590;2022-07-18T15:20:17;29.87;30.08
71627;DHT22;59475;52.464;13.590;2022-07-18T15:22:43;29.84;30.49
71627;DHT22;59475;52.464;13.590;2022-07-18T15:25:09;29.96;30.96
71627;DHT22;59475;52.464;13.590;2022-07-18T15:27:35;30.10;29.96
71627;DHT22;59475;52.464;13.590;2022-07-18T15:30:00;30.31;29.80
71627;DHT22;59475;52.464;13.590;2022-07-18T15:32:26;30.36;30.02
71627;DHT22;59475;52.464;13.590;2022-07-18T15:34:51;30.22;30.75
71627;DHT22;59475;52.464;13.590;2022-07-18T15:37:16;29.97;30.45
71627;DHT22;59475;52.464;13.590;2022-07-18T15:39:42;29.84;30.40